Terminal Aerodrome Forecast
Issued by NWS

Home | Current Version | Previous Version | Text Only | Print | Product List | Glossary On
Versions: 1 2 3 4 5 6 7 8 9 10 11 12
000
FTUS45 KRIW 061700
TAFCOD
TAF
KCOD 061723Z 0618/0718 27014G24KT P6SM SCT100 WS020/28040KT
     FM061900 27013KT P6SM SCT110
     FM070400 26010KT P6SM SCT110
      AMD LTD TO CLD VIS AND WIND=

USA.gov is the U.S. government's official web portal to all federal, state and local government web resources and services.